Main page
METAR-TAF:

METAR-TAF

Airports :

Istanbul Atatürk Airport

Istanbul Atatürk, Turkey

latitude: 40-58N, longitude: 028-49E, elevation: 48 m

Current weather observation

The report was made 18 minutes ago, at 23:50 UTC
Wind 6 kt from the East/Northeast
Temperature 25°C
Humidity 79%
Pressure 1010 hPa
Visibility 10 km or more
Few clouds at a height of 2000 ft

METAR: LTBA 092350Z 06006KT 9999 FEW020 25/21 Q1010 NOSIG RMK RWY23 07006KT 040V100

Time: 03:08 (00:08 UTC)

Forecast

The report was made 1 hour and 28 minutes ago, at 22:40 UTC
Forecast valid from 10 at 00 UTC to 11 at 06 UTC
Wind 12 kt from the Northeast
Visibility 10 km or more
Scattered clouds at a height of 3000 ft
Temporary
from 10 at 07 UTC to 10 at 11 UTC
Wind 17 kt from the Northeast with gusts up to 27 kt
Few clouds at a height of 1800 ft, Cumulonimbus.
Broken clouds at a height of 2500 ft
light rain showers

TAF: LTBA 092240Z 1000/1106 04012KT 9999 SCT030 TEMPO 1007/1011 04017G27KT -SHRA FEW018CB BKN025

Weather observations and forecasts of more than 4000 airports (METAR and TAF reports).

The available stations are represented by yellow and red dots on the map.

Hover mouse over dot to see the name of the station.

Then click to see weather observations and forecasts.

To change the map : click on the green buttons with a black cross to zoom in, on the green button with a dash to zoom out, or on the green arrows for adjacent maps.


METAR-TAF: